Terminal Aerodrome Forecast
Issued by NWS

Home | Current Version | Previous Version | Text Only | Print | Product List | Glossary On
Versions: 1 2 3 4 5 6 7 8 9 10 11 12 13 14 15 16 17 18 19 20 21 22
000
FTUS43 KMQT 021100
TAFSAW
TAF
KSAW 021138Z 0212/0312 20005KT 2SM BR OVC003
     FM021400 17003KT 5SM BR OVC006
     FM021700 15005KT P6SM OVC010
     FM030100 10004KT 2SM -RA BR OVC005
     FM030700 34005KT 5SM -SHRA BR OVC003
      AMD LTD TO CLD VIS AND WIND 0302/0310=

USA.gov is the U.S. government's official web portal to all federal, state and local government web resources and services.